Time;durP1;ratioP1;P1;durP2;ratioP2;P2;SDS_P1;SDS_P2;PMS_P1;PMS_P2;Temp;Humidity;BMP_temperature;BMP_pressure;BME280_temperature;BME280_humidity;BME280_pressure;Samples;Min_cycle;Max_cycle;Signal;HPM_P1;HPM_P2
2023/04/21 00:01:29;;;;;;;14.55;8.07;;;;;;;8.85;86.94;101378.47;7398554;19;20035;-69
2023/04/21 00:04:00;;;;;;;11.85;8.75;;;;;;;8.83;87.04;101376.75;7396992;19;20015;-69
2023/04/21 00:06:30;;;;;;;11.48;8.02;;;;;;;8.79;87.18;101366.28;7397188;19;20485;-69
2023/04/21 00:08:58;;;;;;;13.27;8.35;;;;;;;8.77;87.29;101369.78;7398252;19;20022;-69
2023/04/21 00:11:27;;;;;;;11.98;7.65;;;;;;;8.73;87.36;101375.91;7397504;19;20489;-69
2023/04/21 00:13:55;;;;;;;11.43;7.78;;;;;;;8.70;87.38;101371.56;7396798;19;20023;-69
2023/04/21 00:16:24;;;;;;;11.48;8.23;;;;;;;8.67;87.31;101371.59;7398054;19;20015;-69
2023/04/21 00:18:52;;;;;;;13.27;8.00;;;;;;;8.64;87.67;101372.47;7397990;19;20082;-69
2023/04/21 00:21:23;;;;;;;12.23;8.40;;;;;;;8.60;87.63;101365.47;7397870;19;20042;-69
2023/04/21 00:23:51;;;;;;;15.73;7.93;;;;;;;8.56;87.91;101369.00;7396333;19;20098;-69
2023/04/21 00:26:20;;;;;;;11.85;7.78;;;;;;;8.54;87.93;101364.66;7395410;19;20553;-69
2023/04/21 00:28:48;;;;;;;13.75;7.63;;;;;;;8.51;88.12;101365.53;7397674;19;20025;-69
2023/04/21 00:31:17;;;;;;;15.30;7.63;;;;;;;8.49;88.25;101362.03;7397503;19;20014;-69
2023/04/21 00:33:45;;;;;;;14.65;7.95;;;;;;;8.46;88.36;101359.44;7394953;19;20021;-69
2023/04/21 00:36:13;;;;;;;13.75;8.00;;;;;;;8.44;88.59;101363.75;7397449;19;20007;-69
2023/04/21 00:38:44;;;;;;;11.73;8.30;;;;;;;8.42;88.44;101358.53;7397327;19;20032;-69
2023/04/21 00:41:13;;;;;;;13.90;8.25;;;;;;;8.41;88.66;101362.03;7397347;19;20015;-69
2023/04/21 00:44:02;;;;;;;16.17;7.97;;;;;;;8.38;88.73;101359.44;7396178;19;20082;-69
2023/04/21 00:46:31;;;;;;;15.68;8.52;;;;;;;8.35;88.69;101350.72;7397473;19;20018;-69
2023/04/21 00:49:00;;;;;;;11.82;8.30;;;;;;;8.30;89.05;101346.38;7396960;19;20082;-69
2023/04/21 00:51:31;;;;;;;11.63;9.30;;;;;;;8.28;89.13;101353.34;7396452;19;20014;-69
2023/04/21 00:54:04;;;;;;;15.63;8.65;;;;;;;8.26;89.21;101355.09;7395822;19;20037;-69
2023/04/21 00:56:35;;;;;;;15.63;8.40;;;;;;;8.24;89.18;101349.00;7396446;19;20011;-69
2023/04/21 00:59:04;;;;;;;14.10;8.57;;;;;;;8.22;89.37;101348.13;7396338;19;20488;-69
2023/04/21 01:01:35;;;;;;;16.27;9.68;;;;;;;8.19;89.56;101342.03;7396640;19;20018;-69
2023/04/21 01:04:05;;;;;;;12.65;8.30;;;;;;;8.17;89.74;101347.28;7395582;19;20074;-69
2023/04/21 01:06:34;;;;;;;13.95;8.40;;;;;;;8.13;89.90;101345.56;7396336;19;20037;-69
2023/04/21 01:09:06;;;;;;;12.50;7.82;;;;;;;8.11;89.84;101344.69;7396065;19;20362;-69
2023/04/21 01:11:34;;;;;;;11.68;8.80;;;;;;;8.09;89.91;101354.28;7396697;19;20010;-69
2023/04/21 01:14:03;;;;;;;13.15;8.85;;;;;;;8.05;90.03;101349.91;7395649;19;20081;-68
2023/04/21 01:16:32;;;;;;;15.82;9.23;;;;;;;8.03;90.04;101346.44;7394393;19;20094;-68
2023/04/21 01:19:01;;;;;;;15.10;9.85;;;;;;;7.99;90.24;101346.44;7393809;19;20404;-68
2023/04/21 01:21:30;;;;;;;19.02;8.82;;;;;;;7.95;90.30;101344.72;7395567;19;20011;-68
2023/04/21 01:24:01;;;;;;;12.50;9.32;;;;;;;7.92;90.49;101352.56;7394684;19;20033;-68
2023/04/21 01:26:30;;;;;;;21.50;11.40;;;;;;;7.90;90.50;101345.56;7395485;19;20025;-68
2023/04/21 01:28:59;;;;;;;15.05;9.93;;;;;;;7.87;90.51;101346.44;7395385;19;20365;-68
2023/04/21 01:31:27;;;;;;;15.98;9.48;;;;;;;7.83;90.54;101339.50;7395269;19;20021;-68
2023/04/21 01:33:56;;;;;;;11.70;9.05;;;;;;;7.78;90.56;101336.88;7393030;19;20378;-68
2023/04/21 01:36:25;;;;;;;18.65;10.30;;;;;;;7.74;90.74;101342.13;7395513;19;20028;-69
2023/04/21 01:38:53;;;;;;;17.05;9.15;;;;;;;7.69;90.91;101341.25;7395512;19;20018;-68
2023/04/21 01:41:24;;;;;;;14.13;9.75;;;;;;;7.64;90.95;101334.25;7395366;19;20014;-68
2023/04/21 01:43:53;;;;;;;14.82;9.48;;;;;;;7.60;91.08;101339.50;7393048;19;20488;-68
2023/04/21 01:46:21;;;;;;;11.43;10.13;;;;;;;7.54;91.02;101331.66;7395209;19;20094;-68
2023/04/21 01:48:50;;;;;;;23.27;14.88;;;;;;;7.50;91.40;101331.66;7395201;19;20093;-68
2023/04/21 01:51:18;;;;;;;22.92;15.73;;;;;;;7.46;91.42;101336.88;7394947;19;20015;-68
2023/04/21 01:53:46;;;;;;;18.48;13.10;;;;;;;7.43;91.58;101335.16;7393410;19;20025;-68
2023/04/21 01:56:16;;;;;;;20.10;14.65;;;;;;;7.40;91.43;101335.13;7394958;19;20014;-68
2023/04/21 01:58:47;;;;;;;19.92;12.60;;;;;;;7.38;91.43;101334.28;7395017;19;20039;-68
2023/04/21 02:01:15;;;;;;;20.25;13.88;;;;;;;7.32;91.58;101337.72;7392704;19;20485;-68
2023/04/21 02:03:44;;;;;;;23.38;14.32;;;;;;;7.28;91.69;101330.78;7394910;19;20086;-69
2023/04/21 02:06:13;;;;;;;16.85;13.90;;;;;;;7.23;91.79;101337.72;7395895;19;20026;-68
2023/04/21 02:08:42;;;;;;;18.80;13.43;;;;;;;7.18;91.80;101336.84;7396045;19;20018;-68
2023/04/21 02:11:10;;;;;;;20.17;14.13;;;;;;;7.13;92.00;101339.44;7394568;19;20074;-68
2023/04/21 02:13:39;;;;;;;18.95;14.73;;;;;;;7.09;92.04;101340.31;7392205;19;20018;-68
2023/04/21 02:16:10;;;;;;;23.15;14.32;;;;;;;7.07;92.19;101336.81;7394238;19;20023;-68
2023/04/21 02:18:40;;;;;;;20.75;13.65;;;;;;;7.01;92.21;101340.31;7393900;19;20015;-68
2023/04/21 02:21:08;;;;;;;17.92;12.00;;;;;;;6.99;92.19;101339.41;7395152;19;20041;-68
2023/04/21 02:23:37;;;;;;;16.95;12.50;;;;;;;6.96;92.34;101331.59;7393178;19;20018;-68
2023/04/21 02:26:05;;;;;;;19.92;11.65;;;;;;;6.91;92.50;101328.06;7392234;19;20023;-68
2023/04/21 02:28:34;;;;;;;21.40;11.93;;;;;;;6.89;92.70;101332.44;7391886;19;20355;-68
2023/04/21 02:31:02;;;;;;;22.00;10.80;;;;;;;6.83;92.79;101324.59;7400596;19;20026;-68
2023/04/21 02:33:33;;;;;;;14.77;10.18;;;;;;;6.78;92.78;101321.94;7398859;19;20003;-68
2023/04/21 02:36:02;;;;;;;17.70;10.73;;;;;;;6.74;92.85;101319.34;7401868;19;20082;-68
2023/04/21 02:38:30;;;;;;;14.75;10.50;;;;;;;6.69;93.11;101320.19;7401372;19;20025;-68
2023/04/21 02:40:58;;;;;;;18.65;11.52;;;;;;;6.65;93.05;101317.59;7400703;19;20544;-68
2023/04/21 02:43:27;;;;;;;16.45;10.77;;;;;;;6.62;93.36;101320.16;7399833;19;20022;-68
2023/04/21 02:45:55;;;;;;;17.42;12.07;;;;;;;6.59;93.32;101328.84;7400678;19;20491;-68
2023/04/21 02:48:25;;;;;;;17.20;11.55;;;;;;;6.56;93.66;101328.84;7398388;19;20023;-68
2023/04/21 02:50:56;;;;;;;18.88;11.45;;;;;;;6.54;93.53;101329.69;7400415;19;20019;-68
2023/04/21 02:53:25;;;;;;;16.00;11.05;;;;;;;6.51;93.52;101336.63;7399563;19;20015;-68
2023/04/21 02:55:54;;;;;;;14.73;11.02;;;;;;;6.48;93.48;101328.81;7400417;19;20376;-68
2023/04/21 02:58:28;;;;;;;20.10;11.30;;;;;;;6.45;93.84;101331.38;7400056;19;20429;-68
2023/04/21 03:00:57;;;;;;;20.95;13.35;;;;;;;6.42;93.99;101333.09;7399954;19;20381;-68
2023/04/21 03:03:25;;;;;;;20.90;13.45;;;;;;;6.39;93.74;101330.50;7399111;19;20115;-68
2023/04/21 03:06:01;;;;;;;17.55;11.95;;;;;;;6.34;93.92;101328.75;7397801;19;20031;-68
2023/04/21 03:08:30;;;;;;;13.32;11.93;;;;;;;6.31;93.92;101328.72;7400498;19;20039;-68
2023/04/21 03:10:58;;;;;;;18.55;12.77;;;;;;;6.27;94.20;101328.69;7399972;19;20481;-68
2023/04/21 03:13:27;;;;;;;16.33;13.45;;;;;;;6.23;94.15;101322.59;7397516;19;20020;-68
2023/04/21 03:15:56;;;;;;;17.13;12.07;;;;;;;6.19;94.37;101323.44;7397283;19;20481;-68
2023/04/21 03:18:24;;;;;;;18.67;12.18;;;;;;;6.15;94.43;101325.16;7399506;19;20015;-69
2023/04/21 03:20:53;;;;;;;17.40;13.05;;;;;;;6.13;94.63;101323.38;7399862;19;20029;-69
2023/04/21 03:23:24;;;;;;;16.08;12.10;;;;;;;6.10;94.59;101318.19;7398799;19;20046;-68
2023/04/21 03:25:53;;;;;;;15.65;12.23;;;;;;;6.07;94.89;101324.25;7399940;19;20014;-68
2023/04/21 03:28:21;;;;;;;13.93;11.68;;;;;;;6.03;94.97;101323.34;7399594;19;20018;-69
2023/04/21 03:30:50;;;;;;;20.52;13.10;;;;;;;6.01;95.15;101321.59;7399505;19;20365;-69
2023/04/21 03:33:18;;;;;;;22.33;12.88;;;;;;;5.99;95.17;101326.81;7397309;19;20477;-68
2023/04/21 03:35:46;;;;;;;15.02;12.40;;;;;;;5.97;95.03;101319.81;7399313;19;20019;-68
2023/04/21 03:38:15;;;;;;;20.73;12.95;;;;;;;5.93;95.24;101320.66;7399325;19;20039;-69
2023/04/21 03:40:46;;;;;;;18.20;13.65;;;;;;;5.93;95.39;101325.88;7398292;19;20099;-68
2023/04/21 03:43:15;;;;;;;19.73;13.10;;;;;;;5.91;95.36;101324.97;7398272;19;20027;-68
2023/04/21 03:45:43;;;;;;;25.83;14.10;;;;;;;5.89;95.59;101324.97;7398542;19;20018;-69
2023/04/21 03:48:11;;;;;;;20.80;13.52;;;;;;;5.87;95.42;101326.69;7398855;19;20019;-68
2023/04/21 03:50:40;;;;;;;23.73;15.40;;;;;;;5.83;95.47;101317.09;7398959;19;20502;-68
2023/04/21 03:53:08;;;;;;;21.42;13.35;;;;;;;5.84;95.83;101324.94;7396928;19;20015;-68
2023/04/21 03:55:37;;;;;;;22.80;13.45;;;;;;;5.83;95.82;101324.91;7398323;19;20032;-69
2023/04/21 03:58:08;;;;;;;23.20;14.05;;;;;;;5.82;95.77;101323.16;7398139;19;20018;-69
2023/04/21 04:00:37;;;;;;;21.90;13.48;;;;;;;5.81;96.00;101317.09;7398616;19;20018;-68
2023/04/21 04:03:06;;;;;;;22.42;15.43;;;;;;;5.80;96.32;101327.47;7396939;19;20415;-68
2023/04/21 04:05:34;;;;;;;22.92;15.07;;;;;;;5.80;96.47;101330.09;7397566;19;20035;-68
2023/04/21 04:08:03;;;;;;;20.98;15.48;;;;;;;5.78;96.39;101318.81;7397848;19;20022;-68
2023/04/21 04:10:32;;;;;;;24.85;15.57;;;;;;;5.81;96.34;101329.22;7397539;19;20023;-67
2023/04/21 04:13:00;;;;;;;24.67;16.08;;;;;;;5.81;96.54;101329.22;7396634;19;20473;-69
2023/04/21 04:15:31;;;;;;;25.48;15.73;;;;;;;5.81;96.51;101332.72;7397446;19;20031;-69
2023/04/21 04:18:00;;;;;;;19.35;14.82;;;;;;;5.82;96.66;101336.19;7397570;19;20022;-69
2023/04/21 04:20:28;;;;;;;20.85;14.20;;;;;;;5.82;96.66;101330.97;7397576;19;20028;-68
2023/04/21 04:22:57;;;;;;;18.75;14.55;;;;;;;5.81;96.78;101334.44;7397173;19;20019;-68
2023/04/21 04:25:26;;;;;;;22.58;16.02;;;;;;;5.80;96.93;101328.38;7397703;19;20076;-68
2023/04/21 04:28:01;;;;;;;20.98;16.42;;;;;;;5.81;97.15;101327.53;7397146;19;20545;-68
2023/04/21 04:30:32;;;;;;;21.50;16.08;;;;;;;5.80;97.04;101330.97;7397662;19;20022;-68
2023/04/21 04:33:01;;;;;;;22.17;15.93;;;;;;;5.79;96.97;101329.22;7395482;19;20018;-68
2023/04/21 04:35:29;;;;;;;24.30;17.77;;;;;;;5.79;97.10;101330.97;7395458;19;20011;-68
2023/04/21 04:37:58;;;;;;;22.38;18.48;;;;;;;5.79;97.19;101331.84;7397781;19;20494;-69
2023/04/21 04:40:27;;;;;;;21.70;18.38;;;;;;;5.79;97.28;101330.97;7397314;19;20017;-69
2023/04/21 04:42:56;;;;;;;22.85;19.27;;;;;;;5.79;97.28;101329.22;7397040;19;20011;-68
2023/04/21 04:45:25;;;;;;;26.13;19.10;;;;;;;5.80;97.37;101332.69;7396594;19;20485;-69
2023/04/21 04:47:56;;;;;;;28.88;20.73;;;;;;;5.81;97.34;101337.06;7395309;19;20381;-70
2023/04/21 04:50:24;;;;;;;23.00;17.95;;;;;;;5.83;97.62;101330.13;7395255;19;20031;-70
2023/04/21 04:52:53;;;;;;;25.42;18.75;;;;;;;5.84;97.83;101331.88;7393317;19;20427;-69
2023/04/21 04:55:21;;;;;;;27.27;18.92;;;;;;;5.87;97.80;101332.75;7395824;19;20014;-68
2023/04/21 04:57:50;;;;;;;25.05;19.58;;;;;;;5.90;98.05;101329.28;7393626;19;20037;-69
2023/04/21 05:00:19;;;;;;;26.52;18.35;;;;;;;5.94;98.03;101333.69;7395839;19;20006;-70
2023/04/21 05:02:48;;;;;;;26.45;18.85;;;;;;;5.98;98.10;101338.06;7395021;19;20503;-69
2023/04/21 05:05:19;;;;;;;25.58;18.95;;;;;;;6.02;98.02;101337.22;7395513;19;20031;-69
2023/04/21 05:07:47;;;;;;;25.92;18.38;;;;;;;6.07;98.12;101336.41;7394783;19;20018;-70
2023/04/21 05:10:16;;;;;;;26.85;18.83;;;;;;;6.11;98.33;101332.94;7394050;19;20419;-70
2023/04/21 05:12:44;;;;;;;29.05;19.60;;;;;;;6.16;98.33;101333.84;7393878;19;20486;-69
2023/04/21 05:15:13;;;;;;;30.10;20.40;;;;;;;6.21;98.24;101328.69;7395643;19;20039;-69
2023/04/21 05:17:41;;;;;;;27.80;20.10;;;;;;;6.27;98.49;101326.97;7393439;19;20043;-71
2023/04/21 05:20:11;;;;;;;26.10;19.48;;;;;;;6.32;98.65;101329.59;7394652;19;20014;-70
2023/04/21 05:22:42;;;;;;;28.58;18.95;;;;;;;6.38;98.40;101328.75;7394288;19;20431;-68
2023/04/21 05:25:14;;;;;;;28.83;19.75;;;;;;;6.45;98.35;101340.97;7395122;19;20027;-69
2023/04/21 05:27:43;;;;;;;28.70;19.08;;;;;;;6.50;98.57;101326.22;7395794;19;20018;-69
2023/04/21 05:30:12;;;;;;;21.35;18.52;;;;;;;6.57;98.33;101332.31;7395275;19;20026;-69
2023/04/21 05:32:41;;;;;;;35.00;22.70;;;;;;;6.63;98.40;101329.72;7393907;19;20033;-69
2023/04/21 05:35:10;;;;;;;28.70;18.50;;;;;;;6.68;98.12;101328.91;7392947;19;20010;-69
2023/04/21 05:37:38;;;;;;;33.03;21.65;;;;;;;6.77;98.18;101332.38;7395465;19;20035;-69
2023/04/21 05:40:10;;;;;;;27.13;18.52;;;;;;;6.83;98.11;101325.44;7393950;19;20035;-69
2023/04/21 05:42:39;;;;;;;22.73;17.92;;;;;;;6.92;97.64;101331.56;7395136;19;20028;-69
2023/04/21 05:45:08;;;;;;;23.98;17.77;;;;;;;6.96;97.52;101323.78;7395037;19;20022;-69
2023/04/21 05:47:37;;;;;;;25.52;18.60;;;;;;;7.06;97.23;101335.06;7394847;19;20022;-69
2023/04/21 05:50:07;;;;;;;23.00;18.15;;;;;;;7.16;96.95;101330.75;7394174;19;20516;-69
2023/04/21 05:52:36;;;;;;;26.63;19.58;;;;;;;7.26;96.34;101329.03;7394568;19;20018;-69
2023/04/21 05:55:05;;;;;;;26.77;20.17;;;;;;;7.36;96.16;101329.94;7392363;19;20026;-69
2023/04/21 05:57:36;;;;;;;28.95;19.02;;;;;;;7.44;95.38;101322.94;7393262;19;20022;-69
2023/04/21 06:00:05;;;;;;;24.30;17.40;;;;;;;7.54;95.18;101324.69;7394384;19;20014;-69
2023/04/21 06:02:33;;;;;;;25.83;16.73;;;;;;;7.63;94.57;101337.78;7394088;19;20449;-69
2023/04/21 06:05:02;;;;;;;23.23;16.02;;;;;;;7.71;94.19;101332.53;7397842;19;20035;-69
2023/04/21 06:07:30;;;;;;;21.08;16.33;;;;;;;7.80;93.96;101334.28;7398629;19;20545;-70
2023/04/21 06:09:59;;;;;;;22.63;15.27;;;;;;;7.87;93.38;101338.59;7402098;19;20089;-69
2023/04/21 06:12:27;;;;;;;20.23;14.13;;;;;;;7.94;92.96;101327.28;7401674;19;20010;-69
2023/04/21 06:14:59;;;;;;;23.00;14.48;;;;;;;8.01;92.94;101328.13;7399337;19;20018;-68
2023/04/21 06:17:27;;;;;;;21.00;13.93;;;;;;;8.08;92.77;101329.00;7399274;19;20022;-69
2023/04/21 06:19:56;;;;;;;18.33;14.90;;;;;;;8.15;92.71;101334.22;7398218;19;20414;-67
2023/04/21 06:22:25;;;;;;;26.70;14.68;;;;;;;8.23;92.28;101335.97;7401481;19;20026;-66
2023/04/21 06:24:53;;;;;;;22.95;15.25;;;;;;;8.29;91.96;101328.97;7401082;19;20346;-68
2023/04/21 06:27:22;;;;;;;20.90;15.60;;;;;;;8.37;91.53;101328.06;7398667;19;20014;-66
2023/04/21 06:29:55;;;;;;;17.50;14.07;;;;;;;8.48;91.85;101328.94;7400536;19;20019;-67
2023/04/21 06:32:26;;;;;;;20.90;14.65;;;;;;;8.65;91.34;101315.78;7400820;19;20032;-67
2023/04/21 06:34:55;;;;;;;18.70;13.95;;;;;;;8.76;90.82;101323.59;7397836;19;20078;-69
2023/04/21 06:37:23;;;;;;;19.08;14.57;;;;;;;8.87;89.72;101319.16;7400939;19;20014;-67
2023/04/21 06:39:52;;;;;;;18.48;14.27;;;;;;;8.95;89.17;101319.97;7400928;19;20035;-67
2023/04/21 06:42:20;;;;;;;19.65;13.70;;;;;;;9.02;88.84;101315.56;7400689;19;20014;-69
2023/04/21 06:44:49;;;;;;;20.77;13.63;;;;;;;9.10;88.76;101323.41;7397946;19;20060;-68
2023/04/21 06:47:18;;;;;;;20.83;14.63;;;;;;;9.18;88.37;101308.50;7399772;19;20011;-68
2023/04/21 06:49:49;;;;;;;20.67;13.68;;;;;;;9.25;87.28;101317.16;7400242;19;20023;-67
2023/04/21 06:52:17;;;;;;;18.85;13.80;;;;;;;9.32;86.51;101302.31;7398139;19;20078;-69
2023/04/21 06:54:46;;;;;;;18.55;14.55;;;;;;;9.39;85.70;101303.97;7397401;19;20026;-70
2023/04/21 06:57:16;;;;;;;21.40;14.48;;;;;;;9.46;85.50;101305.66;7400043;19;20474;-68
2023/04/21 06:59:44;;;;;;;17.95;13.23;;;;;;;9.55;85.16;101313.44;7400554;19;20010;-68
2023/04/21 07:02:13;;;;;;;18.30;13.88;;;;;;;9.62;84.68;101301.19;7401318;19;20043;-69
2023/04/21 07:04:41;;;;;;;20.50;14.20;;;;;;;9.70;83.92;101306.34;7397529;19;20035;-69
2023/04/21 07:07:13;;;;;;;22.05;13.63;;;;;;;9.78;83.48;101308.00;7400083;19;20018;-69
2023/04/21 07:09:41;;;;;;;21.10;14.57;;;;;;;9.88;83.43;101307.91;7399997;19;20022;-69
2023/04/21 07:12:10;;;;;;;19.98;12.65;;;;;;;9.98;83.03;101319.19;7399813;19;20022;-68
2023/04/21 07:14:38;;;;;;;19.15;13.35;;;;;;;10.07;82.47;101311.22;7397622;19;20098;-69
2023/04/21 07:17:07;;;;;;;24.30;14.35;;;;;;;10.15;82.03;101309.41;7396859;19;20028;-69
2023/04/21 07:19:35;;;;;;;22.08;13.57;;;;;;;10.25;81.25;101315.41;7399782;19;20014;-69
2023/04/21 07:22:04;;;;;;;21.83;14.10;;;;;;;10.34;80.58;101306.56;7399451;19;20477;-69
2023/04/21 07:24:36;;;;;;;20.48;13.75;;;;;;;10.42;80.62;101305.59;7397453;19;20097;-69
2023/04/21 07:27:05;;;;;;;19.52;12.75;;;;;;;10.51;80.06;101299.38;7398655;19;20011;-69
2023/04/21 07:29:33;;;;;;;21.08;13.13;;;;;;;10.61;79.82;101300.13;7397140;19;20018;-69
2023/04/21 07:32:01;;;;;;;17.08;12.60;;;;;;;10.69;79.65;101306.16;7396752;19;20024;-68
2023/04/21 07:34:30;;;;;;;15.98;11.75;;;;;;;10.77;79.58;101303.44;7396147;19;20078;-68
2023/04/21 07:36:58;;;;;;;16.90;12.77;;;;;;;10.85;78.49;101296.28;7399974;19;20082;-69
2023/04/21 07:39:27;;;;;;;17.52;12.82;;;;;;;10.94;77.89;101286.56;7399276;19;20018;-68
2023/04/21 07:41:58;;;;;;;18.73;13.02;;;;;;;11.01;77.62;101296.97;7398859;19;20494;-69
2023/04/21 07:44:28;;;;;;;16.02;12.30;;;;;;;11.10;77.62;101287.22;7397279;19;20082;-69
2023/04/21 07:46:56;;;;;;;16.25;12.02;;;;;;;11.17;77.08;101289.72;7398950;19;20023;-69
2023/04/21 07:49:25;;;;;;;19.95;12.65;;;;;;;11.27;76.90;101287.81;7398242;19;20461;-68
2023/04/21 07:51:53;;;;;;;18.10;12.05;;;;;;;11.35;76.42;101292.97;7398415;19;20035;-68
2023/04/21 07:54:22;;;;;;;15.15;10.98;;;;;;;11.44;76.03;101290.16;7396092;19;20015;-68
2023/04/21 07:56:50;;;;;;;18.40;11.77;;;;;;;11.53;75.69;101287.38;7398026;19;20021;-68
2023/04/21 07:59:21;;;;;;;15.00;10.80;;;;;;;11.63;75.46;101288.09;7398129;19;20018;-67
2023/04/21 08:01:50;;;;;;;17.17;10.75;;;;;;;11.73;75.36;101288.81;7398521;19;20018;-68
2023/04/21 08:04:19;;;;;;;16.80;11.27;;;;;;;11.81;75.15;101294.78;7396178;19;20011;-68
2023/04/21 08:06:47;;;;;;;14.40;10.48;;;;;;;11.87;75.08;101285.94;7397659;19;20019;-70
2023/04/21 08:09:16;;;;;;;15.55;10.25;;;;;;;12.00;74.34;101287.44;7395741;19;20014;-68
2023/04/21 08:11:51;;;;;;;15.90;11.13;;;;;;;12.10;73.42;101292.56;7397476;19;20481;-68
2023/04/21 08:14:22;;;;;;;14.15;10.45;;;;;;;12.21;73.05;101288.81;7395467;19;20094;-67
2023/04/21 08:16:51;;;;;;;16.40;10.27;;;;;;;12.31;72.68;101280.72;7396855;19;20492;-68
2023/04/21 08:19:19;;;;;;;14.07;10.25;;;;;;;12.42;73.04;101289.25;7397196;19;20027;-69
2023/04/21 08:21:48;;;;;;;17.38;10.48;;;;;;;12.51;71.82;101282.94;7397615;19;20037;-67
2023/04/21 08:24:16;;;;;;;15.98;9.80;;;;;;;12.62;71.45;101273.03;7395932;19;20022;-67
2023/04/21 08:26:45;;;;;;;12.85;9.75;;;;;;;12.72;71.58;101278.97;7397030;19;20494;-67
2023/04/21 08:29:13;;;;;;;16.38;9.60;;;;;;;12.82;71.10;101277.88;7396756;19;20026;-67
2023/04/21 08:31:44;;;;;;;14.05;9.55;;;;;;;12.93;69.98;101271.47;7397106;19;20022;-67
2023/04/21 08:34:13;;;;;;;11.65;8.82;;;;;;;13.02;70.01;101271.28;7394975;19;20014;-68
2023/04/21 08:36:41;;;;;;;11.65;8.80;;;;;;;13.10;69.66;101266.69;7398169;19;20024;-67
2023/04/21 08:39:10;;;;;;;16.02;9.20;;;;;;;13.21;68.86;101274.34;7396810;19;20493;-66
2023/04/21 08:41:41;;;;;;;13.50;8.18;;;;;;;13.31;66.81;101272.34;7396555;19;20391;-67
2023/04/21 08:44:10;;;;;;;11.65;9.00;;;;;;;13.42;67.26;101267.72;7395165;19;20097;-68
2023/04/21 08:46:39;;;;;;;13.35;8.82;;;;;;;13.54;66.96;101266.53;7396510;19;20082;-68
2023/04/21 08:49:11;;;;;;;13.05;8.43;;;;;;;13.65;65.69;101261.00;7394388;19;20105;-67
2023/04/21 08:51:40;;;;;;;15.45;10.13;;;;;;;13.74;66.09;101257.25;7396961;19;20015;-68
2023/04/21 08:54:08;;;;;;;12.85;9.98;;;;;;;13.83;66.21;101265.75;7394892;19;20026;-67
2023/04/21 08:56:37;;;;;;;18.15;9.38;;;;;;;13.92;65.85;101255.88;7394676;19;20035;-67
2023/04/21 08:59:05;;;;;;;16.75;8.77;;;;;;;14.01;66.02;101258.25;7395617;19;20446;-67
2023/04/21 09:01:34;;;;;;;12.00;9.05;;;;;;;14.10;65.75;101250.09;7395860;19;20023;-67
2023/04/21 09:04:22;;;;;;;15.85;8.75;;;;;;;14.22;62.00;101258.56;7393778;19;20038;-68
2023/04/21 09:06:50;;;;;;;14.43;8.85;;;;;;;14.33;63.44;101259.97;7394589;19;20498;-68
2023/04/21 09:09:19;;;;;;;11.48;8.38;;;;;;;14.45;61.90;101255.25;7394347;19;20077;-68
2023/04/21 09:11:57;;;;;;;16.88;8.60;;;;;;;14.57;56.16;101261.91;7394226;19;20018;-68
2023/04/21 09:14:32;;;;;;;13.40;9.63;;;;;;;14.71;56.14;101257.13;7394087;19;20019;-68
2023/04/21 09:17:02;;;;;;;12.25;8.40;;;;;;;14.85;59.12;101253.16;7395820;19;20035;-69
2023/04/21 09:19:36;;;;;;;13.57;8.32;;;;;;;14.95;56.26;101255.50;7396273;19;20494;-68
2023/04/21 09:22:05;;;;;;;19.38;9.70;;;;;;;15.06;56.91;101251.63;7395952;19;20090;-69
2023/04/21 09:24:33;;;;;;;11.75;9.32;;;;;;;15.18;57.02;101253.00;7394353;19;20022;-67
2023/04/21 09:27:05;;;;;;;10.60;8.40;;;;;;;15.28;56.22;101260.59;7395500;19;20014;-66
2023/04/21 09:29:34;;;;;;;11.57;8.35;;;;;;;15.34;55.46;101251.56;7396020;19;20022;-67
2023/04/21 09:32:03;;;;;;;12.60;8.35;;;;;;;15.45;55.38;101249.44;7395398;19;20020;-68
2023/04/21 09:34:41;;;;;;;11.73;8.43;;;;;;;15.55;54.56;101246.50;7392208;19;20019;-68
2023/04/21 09:37:16;;;;;;;11.23;7.55;;;;;;;15.63;52.89;101252.34;7395526;19;20039;-68
2023/04/21 09:39:48;;;;;;;13.85;7.93;;;;;;;15.72;52.53;101248.53;7393435;19;20035;-69
2023/04/21 09:42:16;;;;;;;9.75;7.38;;;;;;;15.83;52.73;101238.47;7394744;19;20015;-68
2023/04/21 09:44:45;;;;;;;11.68;7.32;;;;;;;15.93;53.91;101244.28;7393390;19;20035;-69
2023/04/21 09:47:14;;;;;;;11.93;7.47;;;;;;;16.01;53.59;101246.66;7394988;19;20019;-68
2023/04/21 09:49:47;;;;;;;9.73;7.65;;;;;;;16.08;51.14;101242.88;7394690;19;20011;-67
2023/04/21 09:52:16;;;;;;;10.68;7.00;;;;;;;16.18;52.98;101238.13;7395394;19;20018;-69
2023/04/21 09:54:50;;;;;;;10.48;7.03;;;;;;;16.25;50.33;101231.66;7392380;19;20513;-69
2023/04/21 09:57:24;;;;;;;10.40;6.78;;;;;;;16.32;48.70;101235.78;7395290;19;20025;-69
2023/04/21 09:59:56;;;;;;;;;;;;;;;16.41;47.29;101229.28;7395705;19;20015;-68
2023/04/21 10:02:27;;;;;;;11.95;6.78;;;;;;;16.49;50.76;101227.22;7394931;19;19923;-68
2023/04/21 10:04:59;;;;;;;9.65;6.25;;;;;;;16.56;49.71;101219.88;7394865;19;20018;-68
2023/04/21 10:07:28;;;;;;;9.43;6.00;;;;;;;16.61;48.06;101221.41;7395352;19;20029;-68
2023/04/21 10:09:58;;;;;;;10.13;6.30;;;;;;;16.69;48.25;101217.63;7392330;19;20019;-68
2023/04/21 10:12:30;;;;;;;9.85;5.97;;;;;;;16.76;48.83;101216.44;7393412;19;20489;-67
2023/04/21 10:14:58;;;;;;;9.23;6.63;;;;;;;16.82;48.71;101215.31;7391925;19;20035;-68
2023/04/21 10:17:28;;;;;;;9.32;6.82;;;;;;;16.90;48.17;101214.09;7393372;19;20014;-68
2023/04/21 10:20:00;;;;;;;10.07;7.35;;;;;;;16.98;46.21;101218.25;7392590;19;20489;-68
2023/04/21 10:22:30;;;;;;;9.13;7.10;;;;;;;17.06;47.66;101208.19;7393286;19;20019;-67
2023/04/21 10:25:00;;;;;;;9.80;7.55;;;;;;;17.12;47.47;101201.78;7390760;19;20482;-68
2023/04/21 10:27:36;;;;;;;7.90;6.32;;;;;;;17.20;43.73;101202.31;7390378;19;20037;-68
2023/04/21 10:30:21;;;;;;;9.40;5.88;;;;;;;17.27;43.35;101198.47;7393649;19;20427;-68
2023/04/21 10:32:50;;;;;;;8.40;5.60;;;;;;;17.33;45.60;101198.22;7393658;19;20018;-70
2023/04/21 10:35:25;;;;;;;7.85;5.63;;;;;;;17.42;42.67;101202.25;7391934;19;20478;-68
2023/04/21 10:37:54;;;;;;;9.23;6.15;;;;;;;17.50;44.85;101186.00;7393091;19;20454;-68
2023/04/21 10:40:37;;;;;;;10.00;5.63;;;;;;;17.56;42.06;101189.25;7391290;19;20024;-69
2023/04/21 10:43:05;;;;;;;9.65;6.15;;;;;;;17.64;44.14;101190.72;7390683;19;20481;-68
2023/04/21 10:45:34;;;;;;;9.75;6.38;;;;;;;17.71;43.62;101170.94;7393137;19;20033;-68
2023/04/21 10:48:03;;;;;;;7.13;5.55;;;;;;;17.83;43.21;101172.16;7391250;19;20033;-66
2023/04/21 10:50:34;;;;;;;6.80;5.65;;;;;;;17.92;42.67;101169.13;7395448;19;20130;-68
2023/04/21 10:53:11;;;;;;;7.65;5.75;;;;;;;17.99;40.59;101164.41;7397838;19;20022;-67
2023/04/21 10:55:41;;;;;;;8.73;5.57;;;;;;;18.07;42.02;101160.47;7397807;19;20022;-68
2023/04/21 10:58:10;;;;;;;13.63;8.02;;;;;;;18.16;42.26;101163.59;7397706;19;20465;-68
2023/04/21 11:00:39;;;;;;;8.80;6.03;;;;;;;18.22;41.89;101156.22;7397396;19;20040;-69
2023/04/21 11:03:09;;;;;;;8.23;5.35;;;;;;;18.29;42.07;101155.94;7398792;19;20491;-69
2023/04/21 11:05:42;;;;;;;9.30;5.40;;;;;;;18.35;39.80;101145.00;7397529;19;20014;-69
2023/04/21 11:08:13;;;;;;;8.95;4.93;;;;;;;18.44;40.92;101146.34;7399946;19;20019;-68
2023/04/21 11:10:54;;;;;;;9.30;5.68;;;;;;;18.51;38.83;101143.34;7398306;19;20022;-69
2023/04/21 11:13:24;;;;;;;10.70;6.07;;;;;;;18.59;38.55;101142.97;7398197;19;20018;-69
2023/04/21 11:16:04;;;;;;;7.75;5.53;;;;;;;18.69;35.84;101130.06;7397170;19;20018;-69
2023/04/21 11:18:40;;;;;;;6.57;5.60;;;;;;;18.76;36.45;101143.94;7398968;19;20026;-68
2023/04/21 11:21:16;;;;;;;9.07;6.03;;;;;;;18.83;38.26;101132.91;7397727;19;20017;-70
2023/04/21 11:23:51;;;;;;;8.80;5.95;;;;;;;18.90;37.66;101133.47;7395801;19;20025;-68
2023/04/21 11:26:20;;;;;;;7.72;6.25;;;;;;;18.97;38.21;101137.56;7397512;19;20510;-68
2023/04/21 11:28:51;;;;;;;11.98;5.43;;;;;;;19.02;38.32;101132.88;7397468;19;20031;-68
2023/04/21 11:31:19;;;;;;;10.45;6.13;;;;;;;19.08;38.99;101123.69;7397285;19;20018;-68